Home » Dassault » Falcon 2000 » [Falcon 2000EX] SACC Dassault Falcon 2000EX JA16AC LANDING TOYAMA Airport 富山空港 2019.7.10
[4K UHD] 2019.7.10 富山空港 TOYAMA Airport, Toyama, JAPAN

– Flight Data –
Date: Jul 10, 2019
Airline: SACC SHIZUOKA AIR COMMUTER 静岡エアコミュータ
Aircraft: Dassault Falcon 2000EX
Registration No.: JA16AC
Flight No.: IFR
Origin: Shizuoka (RJNS/FSZ)
Destination: Toyama (RJNT/TOY)
Runway: 20
Landing: 0041Z
METAR RJNT 100000Z 35003KT 290V050 9999 FEW015 25/19 Q1008

[whitewing681 YouTube Channel] 旅行・飛行機・鉄道・乗り物動画を公開中

[Subscribe チャンネル登録] [whitewing681 YouTube Channel Blog] http://whitewing681.blogspot.jp/

Add comment

Your email address will not be published. Required fields are marked *

Log In

Aircraft Sale

There are no ads matching your search criteria.

Categories